Cape Henlopen — WYR8756 — position and weather

sailwx.info

Track history (hours):
 
Tides and Currents Weather Stations Pressure Air Temp Water Temp Dewpoint Dewpoint Depression Visibility Wind Speed Wind Dir Waves Ship Positions

Cape Henlopen

Owner: DELAWARE RIVER & BAY AUTHORITY, CAPE MAY, NJ. More information available from US FCC via Universal Licensing System and Coast Guard Vessel Documentation Center.

Last reported at 2018-Jun-24 18:30 UTC. Time now 2018-Jun-24 18:55 UTC.
Position N 38°51' W 075°06'.

; draft 3 m.

Type: Passenger vessel. MMSI: 366914180.

Date/timePositionNaut miles runAvg speedWind from/ knotsBaromVisibWave heightAir tempDewpointWater temp
2018-Jun-24 18:30N 38°51' W 075°06'1011.5
2018-Jun-24 17:40N 38°58' W 074°58'0 0.2
2018-Jun-24 17:15N 38°58' W 074°58'1 3.0
2018-Jun-24 17:01N 38°58' W 074°58'611.2
2018-Jun-24 16:30N 38°53' W 075°03'611.2
2018-Jun-24 16:00N 38°49' W 075°07'2 3.5
2018-Jun-24 15:30N 38°47' W 075°07'3 5.0
2018-Jun-24 14:59N 38°50' W 075°07'812.8
2018-Jun-24 14:23N 38°56' W 075°01'4 9.2
2018-Jun-24 14:00N 38°58' W 074°58'0 0.9
2018-Jun-24 13:30N 38°58' W 074°58'611.1
2018-Jun-24 13:00N 38°54' W 075°02'612.3
2018-Jun-24 12:30N 38°48' W 075°07'1 2.8
2018-Jun-24 12:00N 38°47' W 075°07'4 8.0
2018-Jun-24 11:28N 38°51' W 075°06'611.7
2018-Jun-24 10:56N 38°56' W 075°01'3 6.8
2018-Jun-24 10:28N 38°58' W 074°58'0 0.0
2018-Jun-24 10:00N 38°58' W 074°58'0 0.0
2018-Jun-24 09:28N 38°58' W 074°58'0 0.0
2018-Jun-24 08:58N 38°58' W 074°58'0 0.0
2018-Jun-24 08:19N 38°58' W 074°58'0 0.0
2018-Jun-24 07:58N 38°58' W 074°58'0 0.0
2018-Jun-24 07:28N 38°58' W 074°58'0 0.0
2018-Jun-24 06:46N 38°58' W 074°58'0 0.0
2018-Jun-24 04:43N 38°58' W 074°58'0 0.0
2018-Jun-24 00:01N 38°58' W 074°58'1 0.2
2018-Jun-23 20:26N 38°58' W 074°59'13 2.7
2018-Jun-23 15:49N 38°47' W 075°07'0 0.0
2018-Jun-23 15:29N 38°47' W 075°07'4 1.3
2018-Jun-23 12:41N 38°50' W 075°05'10 3.8
2018-Jun-23 10:09N 38°58' W 074°58'0 0.0
2018-Jun-22 23:38N 38°58' W 074°58'1110.9
2018-Jun-22 22:36N 38°50' W 075°07'3 8.6
2018-Jun-22 22:19N 38°47' W 075°07'13 5.9
2018-Jun-22 20:04N 38°58' W 074°58'210.5
2018-Jun-22 19:51N 38°57' W 074°60'512.2
2018-Jun-22 19:28N 38°53' W 075°03'611.8
2018-Jun-22 19:00N 38°48' W 075°07'1 0.2
2018-Jun-22 15:31N 38°48' W 075°07'011.8
2018-Jun-22 15:30N 38°48' W 075°07'12 3.7
2018-Jun-22 12:11N 38°58' W 074°58'0 0.0
2018-Jun-22 11:59N 38°58' W 074°58'0 0.0
2018-Jun-22 11:29N 38°58' W 074°58'0 0.0
2018-Jun-22 10:56N 38°58' W 074°58'0 0.0
2018-Jun-22 10:29N 38°58' W 074°58'0 0.0
2018-Jun-22 09:59N 38°58' W 074°58'0 0.0
2018-Jun-22 09:29N 38°58' W 074°58'0 0.0
2018-Jun-22 08:59N 38°58' W 074°58'0 0.0
2018-Jun-22 08:29N 38°58' W 074°58'0 0.0
2018-Jun-22 07:56N 38°58' W 074°58'0 0.0
2018-Jun-22 07:29N 38°58' W 074°58'0 0.0
2018-Jun-22 06:59N 38°58' W 074°58'0 0.0
2018-Jun-22 06:29N 38°58' W 074°58'0 0.0
2018-Jun-22 05:59N 38°58' W 074°58'0 0.0
2018-Jun-22 05:29N 38°58' W 074°58'0 0.0
2018-Jun-22 04:59N 38°58' W 074°58'0 0.0
2018-Jun-22 04:29N 38°58' W 074°58'0 0.0
2018-Jun-22 03:50N 38°58' W 074°58'0 0.0
2018-Jun-22 03:29N 38°58' W 074°58'0 0.0
2018-Jun-22 02:56N 38°58' W 074°58'0 0.0
2018-Jun-22 02:29N 38°58' W 074°58'0 0.0
2018-Jun-22 01:59N 38°58' W 074°58'0 0.0
2018-Jun-22 01:26N 38°58' W 074°58'0 0.0
2018-Jun-22 00:50N 38°58' W 074°58'0 0.0
2018-Jun-22 00:15N 38°58' W 074°58'0 0.0
2018-Jun-21 23:48N 38°58' W 074°58'0 0.6
2018-Jun-21 23:30N 38°58' W 074°58'710.7
2018-Jun-21 22:53N 38°53' W 075°03'7 0.8
2018-Jun-21 14:47N 38°47' W 075°07'13 3.6
2018-Jun-21 11:02N 38°58' W 074°58'0 0.1
2018-Jun-21 10:59N 38°58' W 074°58'0 0.0
2018-Jun-21 10:29N 38°58' W 074°58'0 0.0
2018-Jun-21 09:59N 38°58' W 074°58'0 0.0
2018-Jun-21 08:53N 38°58' W 074°58'0 0.0
2018-Jun-21 06:59N 38°58' W 074°58'0 0.0
2018-Jun-21 06:11N 38°58' W 074°58'0 0.0
2018-Jun-21 05:59N 38°58' W 074°58'0 0.0
2018-Jun-21 03:50N 38°58' W 074°58'0 0.0
2018-Jun-20 23:43N 38°58' W 074°58'0 0.4
2018-Jun-20 23:30N 38°58' W 074°58'611.0
2018-Jun-20 23:00N 38°54' W 075°03'810.9
2018-Jun-20 22:17N 38°47' W 075°07'0 0.1
2018-Jun-20 21:53N 38°47' W 075°07'4 9.0
2018-Jun-20 21:29N 38°51' W 075°06'712.4
2018-Jun-20 20:54N 38°56' W 075°01'3 7.5
2018-Jun-20 20:30N 38°58' W 074°58'0 0.3
2018-Jun-20 20:00N 38°58' W 074°58'611.3
2018-Jun-20 19:30N 38°53' W 075°02'612.5
2018-Jun-20 19:01N 38°48' W 075°07'1 2.8
2018-Jun-20 18:30N 38°47' W 075°07'4 8.2
2018-Jun-20 18:00N 38°51' W 075°06'611.6
2018-Jun-20 17:30N 38°56' W 075°02'4 8.0
2018-Jun-20 17:00N 38°58' W 074°58'1 1.1
2018-Jun-20 16:31N 38°58' W 074°58'612.7
2018-Jun-20 16:00N 38°53' W 075°03'611.3
2018-Jun-20 15:27N 38°47' W 075°07'13 7.4
2018-Jun-20 13:44N 38°58' W 074°58'1 2.8
2018-Jun-20 13:30N 38°58' W 074°58'0 0.1
2018-Jun-20 12:55N 38°58' W 074°58'0 0.0
2018-Jun-19 20:04N 38°58' W 074°58'0 6.9
2018-Jun-19 20:00N 38°58' W 074°58'5 0.2
2018-Jun-18 21:02N 38°55' W 075°03'7 1.2
2018-Jun-18 15:42N 38°49' W 075°05'11 5.7
2018-Jun-18 13:46N 38°58' W 074°58'0 1.7
2018-Jun-18 13:30N 38°58' W 074°58'0 0.1
2018-Jun-18 13:00N 38°58' W 074°58'0 0.0
2018-Jun-18 12:28N 38°58' W 074°58'0 0.0
2018-Jun-18 11:58N 38°58' W 074°58'0 0.0
2018-Jun-18 11:25N 38°58' W 074°58'0 0.0
2018-Jun-18 10:55N 38°58' W 074°58'0 0.0
2018-Jun-18 10:28N 38°58' W 074°58'0 0.0
2018-Jun-18 09:58N 38°58' W 074°58'0 0.0
2018-Jun-18 09:28N 38°58' W 074°58'0 0.0
2018-Jun-18 08:55N 38°58' W 074°58'0 0.0
2018-Jun-18 08:28N 38°58' W 074°58'0 0.0
2018-Jun-18 07:43N 38°58' W 074°58'0 0.0
2018-Jun-18 07:25N 38°58' W 074°58'0 0.0
2018-Jun-18 06:58N 38°58' W 074°58'0 0.0
2018-Jun-18 06:10N 38°58' W 074°58'0 0.0
2018-Jun-18 05:58N 38°58' W 074°58'0 0.0
2018-Jun-18 05:28N 38°58' W 074°58'0 0.0
2018-Jun-18 04:58N 38°58' W 074°58'0 0.0
2018-Jun-18 04:25N 38°58' W 074°58'0 0.0
2018-Jun-18 03:52N 38°58' W 074°58'0 0.0
2018-Jun-18 03:28N 38°58' W 074°58'0 0.0
2018-Jun-18 02:58N 38°58' W 074°58'0 0.0
2018-Jun-18 02:22N 38°58' W 074°58'0 0.0
2018-Jun-18 01:52N 38°58' W 074°58'0 0.0
2018-Jun-16 13:38N 38°58' W 074°58'0 0.0
2018-Jun-16 13:27N 38°58' W 074°58'0 0.1
2018-Jun-16 13:00N 38°58' W 074°58'0 0.0
2018-Jun-16 12:28N 38°58' W 074°58'0 0.0
2018-Jun-16 11:58N 38°58' W 074°58'0 0.0
2018-Jun-16 11:28N 38°58' W 074°58'0 0.0
2018-Jun-16 10:58N 38°58' W 074°58'0 0.0
2018-Jun-16 10:28N 38°58' W 074°58'0 0.0
2018-Jun-16 09:58N 38°58' W 074°58'0 0.0
2018-Jun-16 09:28N 38°58' W 074°58'0 0.0
2018-Jun-16 08:58N 38°58' W 074°58'0 0.0
2018-Jun-16 08:28N 38°58' W 074°58'0 0.0
2018-Jun-16 07:58N 38°58' W 074°58'0 0.0
2018-Jun-16 07:28N 38°58' W 074°58'0 0.0
2018-Jun-16 06:58N 38°58' W 074°58'0 0.0
2018-Jun-16 06:28N 38°58' W 074°58'0 0.0
2018-Jun-16 05:58N 38°58' W 074°58'0 0.0
2018-Jun-16 05:28N 38°58' W 074°58'0 0.0
2018-Jun-16 04:41N 38°58' W 074°58'0 0.0
2018-Jun-16 04:28N 38°58' W 074°58'0 0.0
2018-Jun-16 03:40N 38°58' W 074°58'0 0.0
2018-Jun-16 03:25N 38°58' W 074°58'0 0.0
2018-Jun-16 02:58N 38°58' W 074°58'0 0.0
2018-Jun-15 11:42N 38°58' W 074°58'0 0.0
2018-Jun-15 11:30N 38°58' W 074°58'0 0.0
2018-Jun-15 11:00N 38°58' W 074°58'0 0.0
2018-Jun-15 10:09N 38°58' W 074°58'0 0.0
2018-Jun-15 09:51N 38°58' W 074°58'0 0.0
2018-Jun-15 09:30N 38°58' W 074°58'0 0.0
2018-Jun-15 08:15N 38°58' W 074°58'0 0.0
2018-Jun-15 08:00N 38°58' W 074°58'0 0.0
2018-Jun-15 07:30N 38°58' W 074°58'0 0.0
2018-Jun-15 07:00N 38°58' W 074°58'0 0.0
2018-Jun-15 06:24N 38°58' W 074°58'0 0.0
2018-Jun-15 06:00N 38°58' W 074°58'0 0.0
2018-Jun-15 05:30N 38°58' W 074°58'0 0.0
2018-Jun-15 05:00N 38°58' W 074°58'0 0.0
2018-Jun-15 04:30N 38°58' W 074°58'0 0.0
2018-Jun-15 04:00N 38°58' W 074°58'0 0.0
2018-Jun-15 03:27N 38°58' W 074°58'0 0.0
2018-Jun-15 02:57N 38°58' W 074°58'0 0.0
2018-Jun-15 02:27N 38°58' W 074°58'0 0.0
2018-Jun-15 01:57N 38°58' W 074°58'0 0.0
2018-Jun-15 01:30N 38°58' W 074°58'0 0.0
2018-Jun-14 23:34N 38°58' W 074°58'1 7.8
2018-Jun-14 23:29N 38°58' W 074°58'  
Track history (hours):
 
Tides and Currents Weather Stations Pressure Air Temp Water Temp Dewpoint Dewpoint Depression Visibility Wind Speed Wind Dir Waves Ship Positions

Cape Henlopen

Owner: DELAWARE RIVER & BAY AUTHORITY, CAPE MAY, NJ. More information available from US FCC via Universal Licensing System and Coast Guard Vessel Documentation Center.

Last reported at 2018-Jun-24 18:30 UTC. Time now 2018-Jun-24 18:55 UTC.
Position N 38°51' W 075°06'.

; draft 3 m.

Type: Passenger vessel. MMSI: 366914180.

Date/timePositionNaut miles runAvg speedWind from/ knotsBaromVisibWave heightAir tempDewpointWater temp
2018-Jun-24 18:30N 38°51' W 075°06'1011.5
2018-Jun-24 17:40N 38°58' W 074°58'0 0.2
2018-Jun-24 17:15N 38°58' W 074°58'1 3.0
2018-Jun-24 17:01N 38°58' W 074°58'611.2
2018-Jun-24 16:30N 38°53' W 075°03'611.2
2018-Jun-24 16:00N 38°49' W 075°07'2 3.5
2018-Jun-24 15:30N 38°47' W 075°07'3 5.0
2018-Jun-24 14:59N 38°50' W 075°07'812.8
2018-Jun-24 14:23N 38°56' W 075°01'4 9.2
2018-Jun-24 14:00N 38°58' W 074°58'0 0.9
2018-Jun-24 13:30N 38°58' W 074°58'611.1
2018-Jun-24 13:00N 38°54' W 075°02'612.3
2018-Jun-24 12:30N 38°48' W 075°07'1 2.8
2018-Jun-24 12:00N 38°47' W 075°07'4 8.0
2018-Jun-24 11:28N 38°51' W 075°06'611.7
2018-Jun-24 10:56N 38°56' W 075°01'3 6.8
2018-Jun-24 10:28N 38°58' W 074°58'0 0.0
2018-Jun-24 10:00N 38°58' W 074°58'0 0.0
2018-Jun-24 09:28N 38°58' W 074°58'0 0.0
2018-Jun-24 08:58N 38°58' W 074°58'0 0.0
2018-Jun-24 08:19N 38°58' W 074°58'0 0.0
2018-Jun-24 07:58N 38°58' W 074°58'0 0.0
2018-Jun-24 07:28N 38°58' W 074°58'0 0.0
2018-Jun-24 06:46N 38°58' W 074°58'0 0.0
2018-Jun-24 04:43N 38°58' W 074°58'0 0.0
2018-Jun-24 00:01N 38°58' W 074°58'1 0.2
2018-Jun-23 20:26N 38°58' W 074°59'13 2.7
2018-Jun-23 15:49N 38°47' W 075°07'0 0.0
2018-Jun-23 15:29N 38°47' W 075°07'4 1.3
2018-Jun-23 12:41N 38°50' W 075°05'10 3.8
2018-Jun-23 10:09N 38°58' W 074°58'0 0.0
2018-Jun-22 23:38N 38°58' W 074°58'1110.9
2018-Jun-22 22:36N 38°50' W 075°07'3 8.6
2018-Jun-22 22:19N 38°47' W 075°07'13 5.9
2018-Jun-22 20:04N 38°58' W 074°58'210.5
2018-Jun-22 19:51N 38°57' W 074°60'512.2
2018-Jun-22 19:28N 38°53' W 075°03'611.8
2018-Jun-22 19:00N 38°48' W 075°07'1 0.2
2018-Jun-22 15:31N 38°48' W 075°07'011.8
2018-Jun-22 15:30N 38°48' W 075°07'12 3.7
2018-Jun-22 12:11N 38°58' W 074°58'0 0.0
2018-Jun-22 11:59N 38°58' W 074°58'0 0.0
2018-Jun-22 11:29N 38°58' W 074°58'0 0.0
2018-Jun-22 10:56N 38°58' W 074°58'0 0.0
2018-Jun-22 10:29N 38°58' W 074°58'0 0.0
2018-Jun-22 09:59N 38°58' W 074°58'0 0.0
2018-Jun-22 09:29N 38°58' W 074°58'0 0.0
2018-Jun-22 08:59N 38°58' W 074°58'0 0.0
2018-Jun-22 08:29N 38°58' W 074°58'0 0.0
2018-Jun-22 07:56N 38°58' W 074°58'0 0.0
2018-Jun-22 07:29N 38°58' W 074°58'0 0.0
2018-Jun-22 06:59N 38°58' W 074°58'0 0.0
2018-Jun-22 06:29N 38°58' W 074°58'0 0.0
2018-Jun-22 05:59N 38°58' W 074°58'0 0.0
2018-Jun-22 05:29N 38°58' W 074°58'0 0.0
2018-Jun-22 04:59N 38°58' W 074°58'0 0.0
2018-Jun-22 04:29N 38°58' W 074°58'0 0.0
2018-Jun-22 03:50N 38°58' W 074°58'0 0.0
2018-Jun-22 03:29N 38°58' W 074°58'0 0.0
2018-Jun-22 02:56N 38°58' W 074°58'0 0.0
2018-Jun-22 02:29N 38°58' W 074°58'0 0.0
2018-Jun-22 01:59N 38°58' W 074°58'0 0.0
2018-Jun-22 01:26N 38°58' W 074°58'0 0.0
2018-Jun-22 00:50N 38°58' W 074°58'0 0.0
2018-Jun-22 00:15N 38°58' W 074°58'0 0.0
2018-Jun-21 23:48N 38°58' W 074°58'0 0.6
2018-Jun-21 23:30N 38°58' W 074°58'710.7
2018-Jun-21 22:53N 38°53' W 075°03'7 0.8
2018-Jun-21 14:47N 38°47' W 075°07'13 3.6
2018-Jun-21 11:02N 38°58' W 074°58'0 0.1
2018-Jun-21 10:59N 38°58' W 074°58'0 0.0
2018-Jun-21 10:29N 38°58' W 074°58'0 0.0
2018-Jun-21 09:59N 38°58' W 074°58'0 0.0
2018-Jun-21 08:53N 38°58' W 074°58'0 0.0
2018-Jun-21 06:59N 38°58' W 074°58'0 0.0
2018-Jun-21 06:11N 38°58' W 074°58'0 0.0
2018-Jun-21 05:59N 38°58' W 074°58'0 0.0
2018-Jun-21 03:50N 38°58' W 074°58'0 0.0
2018-Jun-20 23:43N 38°58' W 074°58'0 0.4
2018-Jun-20 23:30N 38°58' W 074°58'611.0
2018-Jun-20 23:00N 38°54' W 075°03'810.9
2018-Jun-20 22:17N 38°47' W 075°07'0 0.1
2018-Jun-20 21:53N 38°47' W 075°07'4 9.0
2018-Jun-20 21:29N 38°51' W 075°06'712.4
2018-Jun-20 20:54N 38°56' W 075°01'3 7.5
2018-Jun-20 20:30N 38°58' W 074°58'0 0.3
2018-Jun-20 20:00N 38°58' W 074°58'611.3
2018-Jun-20 19:30N 38°53' W 075°02'612.5
2018-Jun-20 19:01N 38°48' W 075°07'1 2.8
2018-Jun-20 18:30N 38°47' W 075°07'4 8.2
2018-Jun-20 18:00N 38°51' W 075°06'611.6
2018-Jun-20 17:30N 38°56' W 075°02'4 8.0
2018-Jun-20 17:00N 38°58' W 074°58'1 1.1
2018-Jun-20 16:31N 38°58' W 074°58'612.7
2018-Jun-20 16:00N 38°53' W 075°03'611.3
2018-Jun-20 15:27N 38°47' W 075°07'13 7.4
2018-Jun-20 13:44N 38°58' W 074°58'1 2.8
2018-Jun-20 13:30N 38°58' W 074°58'0 0.1
2018-Jun-20 12:55N 38°58' W 074°58'0 0.0
2018-Jun-19 20:04N 38°58' W 074°58'0 6.9
2018-Jun-19 20:00N 38°58' W 074°58'5 0.2
2018-Jun-18 21:02N 38°55' W 075°03'7 1.2
2018-Jun-18 15:42N 38°49' W 075°05'11 5.7
2018-Jun-18 13:46N 38°58' W 074°58'0 1.7
2018-Jun-18 13:30N 38°58' W 074°58'0 0.1
2018-Jun-18 13:00N 38°58' W 074°58'0 0.0
2018-Jun-18 12:28N 38°58' W 074°58'0 0.0
2018-Jun-18 11:58N 38°58' W 074°58'0 0.0
2018-Jun-18 11:25N 38°58' W 074°58'0 0.0
2018-Jun-18 10:55N 38°58' W 074°58'0 0.0
2018-Jun-18 10:28N 38°58' W 074°58'0 0.0
2018-Jun-18 09:58N 38°58' W 074°58'0 0.0
2018-Jun-18 09:28N 38°58' W 074°58'0 0.0
2018-Jun-18 08:55N 38°58' W 074°58'0 0.0
2018-Jun-18 08:28N 38°58' W 074°58'0 0.0
2018-Jun-18 07:43N 38°58' W 074°58'0 0.0
2018-Jun-18 07:25N 38°58' W 074°58'0 0.0
2018-Jun-18 06:58N 38°58' W 074°58'0 0.0
2018-Jun-18 06:10N 38°58' W 074°58'0 0.0
2018-Jun-18 05:58N 38°58' W 074°58'0 0.0
2018-Jun-18 05:28N 38°58' W 074°58'0 0.0
2018-Jun-18 04:58N 38°58' W 074°58'0 0.0
2018-Jun-18 04:25N 38°58' W 074°58'0 0.0
2018-Jun-18 03:52N 38°58' W 074°58'0 0.0
2018-Jun-18 03:28N 38°58' W 074°58'0 0.0
2018-Jun-18 02:58N 38°58' W 074°58'0 0.0
2018-Jun-18 02:22N 38°58' W 074°58'0 0.0
2018-Jun-18 01:52N 38°58' W 074°58'0 0.0
2018-Jun-16 13:38N 38°58' W 074°58'0 0.0
2018-Jun-16 13:27N 38°58' W 074°58'0 0.1
2018-Jun-16 13:00N 38°58' W 074°58'0 0.0
2018-Jun-16 12:28N 38°58' W 074°58'0 0.0
2018-Jun-16 11:58N 38°58' W 074°58'0 0.0
2018-Jun-16 11:28N 38°58' W 074°58'0 0.0
2018-Jun-16 10:58N 38°58' W 074°58'0 0.0
2018-Jun-16 10:28N 38°58' W 074°58'0 0.0
2018-Jun-16 09:58N 38°58' W 074°58'0 0.0
2018-Jun-16 09:28N 38°58' W 074°58'0 0.0
2018-Jun-16 08:58N 38°58' W 074°58'0 0.0
2018-Jun-16 08:28N 38°58' W 074°58'0 0.0
2018-Jun-16 07:58N 38°58' W 074°58'0 0.0
2018-Jun-16 07:28N 38°58' W 074°58'0 0.0
2018-Jun-16 06:58N 38°58' W 074°58'0 0.0
2018-Jun-16 06:28N 38°58' W 074°58'0 0.0
2018-Jun-16 05:58N 38°58' W 074°58'0 0.0
2018-Jun-16 05:28N 38°58' W 074°58'0 0.0
2018-Jun-16 04:41N 38°58' W 074°58'0 0.0
2018-Jun-16 04:28N 38°58' W 074°58'0 0.0
2018-Jun-16 03:40N 38°58' W 074°58'0 0.0
2018-Jun-16 03:25N 38°58' W 074°58'0 0.0
2018-Jun-16 02:58N 38°58' W 074°58'0 0.0
2018-Jun-15 11:42N 38°58' W 074°58'0 0.0
2018-Jun-15 11:30N 38°58' W 074°58'0 0.0
2018-Jun-15 11:00N 38°58' W 074°58'0 0.0
2018-Jun-15 10:09N 38°58' W 074°58'0 0.0
2018-Jun-15 09:51N 38°58' W 074°58'0 0.0
2018-Jun-15 09:30N 38°58' W 074°58'0 0.0
2018-Jun-15 08:15N 38°58' W 074°58'0 0.0
2018-Jun-15 08:00N 38°58' W 074°58'0 0.0
2018-Jun-15 07:30N 38°58' W 074°58'0 0.0
2018-Jun-15 07:00N 38°58' W 074°58'0 0.0
2018-Jun-15 06:24N 38°58' W 074°58'0 0.0
2018-Jun-15 06:00N 38°58' W 074°58'0 0.0
2018-Jun-15 05:30N 38°58' W 074°58'0 0.0
2018-Jun-15 05:00N 38°58' W 074°58'0 0.0
2018-Jun-15 04:30N 38°58' W 074°58'0 0.0
2018-Jun-15 04:00N 38°58' W 074°58'0 0.0
2018-Jun-15 03:27N 38°58' W 074°58'0 0.0
2018-Jun-15 02:57N 38°58' W 074°58'0 0.0
2018-Jun-15 02:27N 38°58' W 074°58'0 0.0
2018-Jun-15 01:57N 38°58' W 074°58'0 0.0
2018-Jun-15 01:30N 38°58' W 074°58'0 0.0
2018-Jun-14 23:34N 38°58' W 074°58'1 7.8
2018-Jun-14 23:29N 38°58' W 074°58'  

Dump ship's entire track history